Time;durP1;ratioP1;P1;durP2;ratioP2;P2;SDS_P1;SDS_P2;PMS_P1;PMS_P2;Temp;Humidity;BMP_temperature;BMP_pressure;BME280_temperature;BME280_humidity;BME280_pressure;Samples;Min_cycle;Max_cycle;Signal;HPM_P1;HPM_P2
2022/08/09 00:00:05;;;;;;;2.45;1.88;;;;;;;;;;5002756;28;20106;-86
2022/08/09 00:02:34;;;;;;;2.05;1.85;;;;;;;;;;5004407;28;20085;-86
2022/08/09 00:05:02;;;;;;;2.13;2.00;;;;;;;;;;5004435;28;20113;-87
2022/08/09 00:07:49;;;;;;;1.75;1.63;;;;;;;;;;5002491;28;20038;-86
2022/08/09 00:10:23;;;;;;;2.63;1.92;;;;;;;;;;4999773;28;20052;-86
2022/08/09 00:12:51;;;;;;;2.42;1.85;;;;;;;;;;5002342;28;20054;-86
2022/08/09 00:15:22;;;;;;;5.10;2.15;;;;;;;;;;5002571;28;20051;-87
2022/08/09 00:18:09;;;;;;;2.63;2.10;;;;;;;;;;5003874;28;20077;-87
2022/08/09 00:20:40;;;;;;;3.17;1.70;;;;;;;;;;5005473;28;20086;-87
2022/08/09 00:23:16;;;;;;;2.97;1.95;;;;;;;;;;5003365;28;20054;-87
2022/08/09 00:26:04;;;;;;;2.55;2.10;;;;;;;;;;5004028;28;20086;-86
2022/08/09 00:28:32;;;;;;;2.47;1.98;;;;;;;;;;5003428;28;20046;-86
2022/08/09 00:31:01;;;;;;;4.40;2.15;;;;;;;;;;5003563;28;20046;-87
2022/08/09 00:33:52;;;;;;;1.90;1.77;;;;;;;;;;5005974;28;20055;-87
2022/08/09 00:36:21;;;;;;;2.65;2.45;;;;;;;;;;5009666;28;20050;-87
2022/08/09 00:38:55;;;;;;;5.45;2.05;;;;;;;;;;5008414;28;20034;-87
2022/08/09 00:41:23;;;;;;;2.45;2.17;;;;;;;;;;5008141;28;20054;-89
2022/08/09 00:44:10;;;;;;;2.20;2.10;;;;;;;;;;5007172;28;20042;-87
2022/08/09 00:46:52;;;;;;;2.92;2.30;;;;;;;;;;5008691;28;20051;-87
2022/08/09 00:49:31;;;;;;;2.45;2.10;;;;;;;;;;5009416;28;20054;-87
2022/08/09 00:51:58;;;;;;;5.22;2.28;;;;;;;;;;5009444;28;20050;-87
2022/08/09 00:54:32;;;;;;;2.42;2.33;;;;;;;;;;5008456;28;20530;-86
2022/08/09 00:57:03;;;;;;;2.53;2.30;;;;;;;;;;5008281;28;20050;-87
2022/08/09 00:59:37;;;;;;;9.10;2.60;;;;;;;;;;5008924;28;20062;-87
2022/08/09 01:02:14;;;;;;;6.43;2.67;;;;;;;;;;5007879;28;20114;-88
2022/08/09 01:05:00;;;;;;;3.22;2.70;;;;;;;;;;5009502;28;20050;-87
2022/08/09 01:07:52;;;;;;;4.85;2.60;;;;;;;;;;5008235;28;20057;-89
2022/08/09 01:10:36;;;;;;;5.03;2.40;;;;;;;;;;5008761;28;20050;-87
2022/08/09 01:13:07;;;;;;;2.90;2.58;;;;;;;;;;5008243;28;20463;-88
2022/08/09 01:15:37;;;;;;;;;;;;;;;;;;5009974;28;20096;-87
2022/08/09 01:18:09;;;;;;;4.47;2.78;;;;;;;;;;5008591;28;19921;-86
2022/08/09 01:20:46;;;;;;;2.83;2.60;;;;;;;;;;5007108;28;20561;-87
2022/08/09 01:23:20;;;;;;;3.60;2.60;;;;;;;;;;5006390;28;20046;-88
2022/08/09 01:26:19;;;;;;;4.93;3.38;;;;;;;;;;5003922;28;20050;-86
2022/08/09 01:28:50;;;;;;;3.83;2.70;;;;;;;;;;5005063;28;20119;-86
2022/08/09 01:31:19;;;;;;;4.25;2.78;;;;;;;;;;5005328;28;20050;-86
2022/08/09 01:34:07;;;;;;;4.32;2.33;;;;;;;;;;5002907;28;20054;-86
2022/08/09 01:36:36;;;;;;;2.50;2.30;;;;;;;;;;5005278;28;20070;-86
2022/08/09 01:39:05;;;;;;;2.83;2.55;;;;;;;;;;5006065;28;20054;-86
2022/08/09 01:41:40;;;;;;;4.43;2.40;;;;;;;;;;5006368;28;20061;-87
2022/08/09 01:44:22;;;;;;;2.55;2.35;;;;;;;;;;5007646;28;20057;-87
2022/08/09 01:46:50;;;;;;;4.47;3.30;;;;;;;;;;5007192;28;20058;-87
2022/08/09 01:49:20;;;;;;;3.22;2.90;;;;;;;;;;5008695;28;20119;-87
2022/08/09 01:51:55;;;;;;;2.78;2.58;;;;;;;;;;5008995;28;20073;-86
2022/08/09 01:54:30;;;;;;;4.70;3.05;;;;;;;;;;5008280;28;20081;-86
2022/08/09 01:57:02;;;;;;;5.07;2.65;;;;;;;;;;5008188;28;20058;-87
2022/08/09 01:59:31;;;;;;;4.35;2.70;;;;;;;;;;5007322;28;20397;-87
2022/08/09 02:02:07;;;;;;;3.03;2.83;;;;;;;;;;5007911;28;20054;-87
2022/08/09 02:04:35;;;;;;;6.00;2.47;;;;;;;;;;5006848;28;20050;-87
2022/08/09 02:07:14;;;;;;;2.63;2.42;;;;;;;;;;5006914;28;20050;-87
2022/08/09 02:10:22;;;;;;;3.25;2.95;;;;;;;;;;5007412;28;20088;-88
2022/08/09 02:12:56;;;;;;;4.38;3.22;;;;;;;;;;5006917;28;20057;-87
2022/08/09 02:15:26;;;;;;;3.20;3.00;;;;;;;;;;5007174;28;20056;-87
2022/08/09 02:18:14;;;;;;;3.97;3.40;;;;;;;;;;5007535;28;20058;-86
2022/08/09 02:20:44;;;;;;;2.97;2.78;;;;;;;;;;5007468;28;20117;-87
2022/08/09 02:23:22;;;;;;;2.65;2.50;;;;;;;;;;5005182;28;20430;-87
2022/08/09 02:25:51;;;;;;;3.05;2.70;;;;;;;;;;5004950;28;20062;-86
2022/08/09 02:28:30;;;;;;;3.17;2.97;;;;;;;;;;5003898;28;20177;-86
2022/08/09 02:31:16;;;;;;;3.47;3.20;;;;;;;;;;5002563;28;20055;-86
2022/08/09 02:33:45;;;;;;;3.42;2.92;;;;;;;;;;5003473;28;20069;-86
2022/08/09 02:36:35;;;;;;;3.38;3.13;;;;;;;;;;5002379;28;20057;-86
2022/08/09 02:39:08;;;;;;;3.38;3.08;;;;;;;;;;5003968;28;20060;-86
2022/08/09 02:41:53;;;;;;;3.50;3.27;;;;;;;;;;5004371;28;20057;-86
2022/08/09 02:44:25;;;;;;;3.88;2.97;;;;;;;;;;5004298;28;20054;-86
2022/08/09 02:46:57;;;;;;;4.13;2.88;;;;;;;;;;5004066;28;20050;-86
2022/08/09 02:49:26;;;;;;;3.00;2.80;;;;;;;;;;5003852;28;20069;-86
2022/08/09 02:52:12;;;;;;;3.25;3.05;;;;;;;;;;5003560;28;20506;-86
2022/08/09 02:54:41;;;;;;;3.22;2.92;;;;;;;;;;5001117;28;20069;-86
2022/08/09 02:57:22;;;;;;;3.65;3.10;;;;;;;;;;4999514;28;20059;-85
2022/08/09 02:59:52;;;;;;;3.42;3.20;;;;;;;;;;5002059;28;20050;-85
2022/08/09 03:02:43;;;;;;;6.18;2.70;;;;;;;;;;5003476;28;20074;-86
2022/08/09 03:05:26;;;;;;;4.93;3.00;;;;;;;;;;5003586;28;20073;-87
2022/08/09 03:07:55;;;;;;;3.38;3.05;;;;;;;;;;5004595;28;20249;-86
2022/08/09 03:10:23;;;;;;;4.03;2.97;;;;;;;;;;5005654;28;20078;-86
2022/08/09 03:12:51;;;;;;;3.55;3.35;;;;;;;;;;5005840;28;20112;-87
2022/08/09 03:15:19;;;;;;;3.67;3.38;;;;;;;;;;5004815;28;20050;-86
2022/08/09 03:17:50;;;;;;;4.65;3.58;;;;;;;;;;5004949;28;20410;-86
2022/08/09 03:20:25;;;;;;;3.25;3.05;;;;;;;;;;5005793;28;20054;-86
2022/08/09 03:22:56;;;;;;;3.65;3.30;;;;;;;;;;5004035;28;20451;-88
2022/08/09 03:25:42;;;;;;;3.25;3.05;;;;;;;;;;5004314;28;20046;-86
2022/08/09 03:28:25;;;;;;;4.45;2.92;;;;;;;;;;5005119;28;20100;-87
2022/08/09 03:30:54;;;;;;;3.72;3.33;;;;;;;;;;5004431;28;20050;-86
2022/08/09 03:33:22;;;;;;;4.82;3.40;;;;;;;;;;5005702;28;20058;-86
2022/08/09 03:35:51;;;;;;;8.25;3.88;;;;;;;;;;5006278;28;20114;-86
2022/08/09 03:38:40;;;;;;;3.78;3.28;;;;;;;;;;5005250;28;20050;-86
2022/08/09 03:41:09;;;;;;;3.85;3.55;;;;;;;;;;5004821;28;20058;-86
2022/08/09 03:43:42;;;;;;;4.00;3.20;;;;;;;;;;5003895;28;20062;-86
2022/08/09 03:46:29;;;;;;;4.75;4.20;;;;;;;;;;5002747;28;20049;-87
2022/08/09 03:49:01;;;;;;;18.52;10.02;;;;;;;;;;5001106;28;20046;-85
2022/08/09 03:51:36;;;;;;;9.32;7.13;;;;;;;;;;5001787;28;20104;-87
2022/08/09 03:54:25;;;;;;;18.35;9.95;;;;;;;;;;5002420;28;20051;-85
2022/08/09 03:57:03;;;;;;;19.35;10.90;;;;;;;;;;5005225;28;20055;-86
2022/08/09 03:59:45;;;;;;;13.18;7.45;;;;;;;;;;5003638;28;20535;-85
2022/08/09 04:02:22;;;;;;;10.98;6.95;;;;;;;;;;5003959;28;20085;-86
2022/08/09 04:04:58;;;;;;;9.10;6.30;;;;;;;;;;5005021;28;20061;-86
2022/08/09 04:07:28;;;;;;;5.50;4.72;;;;;;;;;;5005352;28;20057;-86
2022/08/09 04:10:15;;;;;;;4.72;4.32;;;;;;;;;;5007252;28;20451;-86
2022/08/09 04:12:48;;;;;;;9.13;5.15;;;;;;;;;;5008816;28;20062;-86
2022/08/09 04:15:16;;;;;;;8.70;5.95;;;;;;;;;;5008627;28;20050;-86
2022/08/09 04:18:04;;;;;;;8.77;6.60;;;;;;;;;;5008933;28;20070;-87
2022/08/09 04:20:32;;;;;;;8.07;5.90;;;;;;;;;;5010090;28;20042;-86
2022/08/09 04:22:59;;;;;;;8.38;5.60;;;;;;;;;;5009689;28;20487;-86
2022/08/09 04:25:28;;;;;;;7.95;6.00;;;;;;;;;;5006852;28;20053;-85
2022/08/09 04:27:56;;;;;;;8.50;5.88;;;;;;;;;;5009317;28;20050;-86
2022/08/09 04:30:30;;;;;;;6.97;5.47;;;;;;;;;;5009007;28;20046;-85
2022/08/09 04:32:59;;;;;;;7.07;5.57;;;;;;;;;;5008576;28;20483;-86
2022/08/09 04:35:27;;;;;;;5.95;5.15;;;;;;;;;;5008034;28;20054;-86
2022/08/09 04:37:58;;;;;;;4.85;4.45;;;;;;;;;;5008771;28;20066;-86
2022/08/09 04:40:47;;;;;;;4.47;3.95;;;;;;;;;;5007396;28;20054;-86
2022/08/09 04:43:23;;;;;;;8.43;3.92;;;;;;;;;;5004052;28;20054;-86
2022/08/09 04:45:53;;;;;;;15.85;4.60;;;;;;;;;;5005917;28;20058;-86
2022/08/09 04:48:27;;;;;;;13.00;4.40;;;;;;;;;;4989722;28;20050;-86
2022/08/09 04:51:01;;;;;;;7.40;3.85;;;;;;;;;;5003135;28;20081;-85
2022/08/09 04:53:29;;;;;;;5.18;3.30;;;;;;;;;;5003269;28;20419;-86
2022/08/09 04:56:02;;;;;;;3.67;3.38;;;;;;;;;;5003980;28;20052;-86
2022/08/09 04:58:32;;;;;;;6.63;3.58;;;;;;;;;;5002887;28;20074;-86
2022/08/09 05:01:01;;;;;;;6.15;4.53;;;;;;;;;;5001971;28;20054;-86
2022/08/09 05:03:29;;;;;;;5.03;4.60;;;;;;;;;;5002638;28;20549;-86
2022/08/09 05:06:11;;;;;;;6.53;5.93;;;;;;;;;;4998930;28;20085;-86
2022/08/09 05:08:55;;;;;;;7.72;4.40;;;;;;;;;;5003585;28;20080;-86
2022/08/09 05:11:31;;;;;;;9.10;4.50;;;;;;;;;;5001673;28;20088;-85
2022/08/09 05:14:05;;;;;;;4.75;3.53;;;;;;;;;;4998101;28;20053;-85
2022/08/09 05:16:37;;;;;;;3.92;3.00;;;;;;;;;;5000803;28;20046;-86
2022/08/09 05:19:28;;;;;;;3.45;3.15;;;;;;;;;;5000967;28;20063;-86
2022/08/09 05:22:12;;;;;;;3.47;2.80;;;;;;;;;;5001010;28;20053;-85
2022/08/09 05:25:02;;;;;;;4.22;2.90;;;;;;;;;;5000737;28;20054;-85
2022/08/09 05:27:57;;;;;;;2.80;2.60;;;;;;;;;;5002075;28;20057;-86
2022/08/09 05:30:33;;;;;;;4.57;2.85;;;;;;;;;;5004454;28;20061;-85
2022/08/09 05:33:03;;;;;;;4.32;2.60;;;;;;;;;;5004922;28;20050;-86
2022/08/09 05:35:37;;;;;;;4.32;2.50;;;;;;;;;;5004483;28;20137;-86
2022/08/09 05:38:18;;;;;;;6.57;2.38;;;;;;;;;;5004692;28;20051;-86
2022/08/09 05:40:55;;;;;;;4.38;2.08;;;;;;;;;;4990968;28;20447;-85
2022/08/09 05:43:23;;;;;;;6.38;2.83;;;;;;;;;;5003318;28;20073;-86
2022/08/09 05:45:58;;;;;;;4.63;2.22;;;;;;;;;;5002698;28;20138;-84
2022/08/09 05:48:37;;;;;;;2.08;1.98;;;;;;;;;;5003364;28;20056;-85
2022/08/09 05:51:31;;;;;;;4.32;2.28;;;;;;;;;;5004285;28;20407;-85
2022/08/09 05:54:25;;;;;;;6.45;2.70;;;;;;;;;;5003612;28;20050;-85
2022/08/09 05:57:01;;;;;;;11.15;3.90;;;;;;;;;;5003887;28;20046;-85
2022/08/09 05:59:50;;;;;;;16.60;4.80;;;;;;;;;;5007614;28;20046;-86
2022/08/09 06:02:17;;;;;;;18.02;4.18;;;;;;;;;;5007828;28;20096;-88
2022/08/09 06:04:45;;;;;;;8.27;3.70;;;;;;;;;;5008906;28;20061;-86
2022/08/09 06:07:24;;;;;;;29.83;5.38;;;;;;;;;;5007050;28;20050;-86
2022/08/09 06:10:06;;;;;;;;;;;;;;;;;;5008139;28;20059;-87
2022/08/09 06:12:34;;;;;;;14.70;3.50;;;;;;;;;;5005031;28;19945;-85
2022/08/09 06:15:08;;;;;;;13.13;3.67;;;;;;;;;;5006258;28;20050;-87
2022/08/09 06:17:36;;;;;;;28.48;6.25;;;;;;;;;;5003089;28;20054;-86
2022/08/09 06:20:07;;;;;;;34.92;7.03;;;;;;;;;;5005275;28;20046;-86
2022/08/09 06:22:38;;;;;;;32.55;10.00;;;;;;;;;;5006206;28;20050;-86
2022/08/09 06:25:12;;;;;;;36.55;7.88;;;;;;;;;;5006051;28;20069;-87
2022/08/09 06:27:42;;;;;;;42.20;6.72;;;;;;;;;;5009033;28;20062;-86
2022/08/09 06:30:18;;;;;;;52.33;6.82;;;;;;;;;;5006793;28;20054;-86
2022/08/09 06:32:45;;;;;;;38.03;4.10;;;;;;;;;;5007012;28;20535;-86
2022/08/09 06:35:33;;;;;;;25.08;6.15;;;;;;;;;;5006220;28;20500;-87
2022/08/09 06:38:28;;;;;;;39.67;6.40;;;;;;;;;;5005748;28;20524;-86
2022/08/09 06:41:04;;;;;;;22.75;6.50;;;;;;;;;;5008267;28;20130;-88
2022/08/09 06:43:46;;;;;;;25.25;6.53;;;;;;;;;;5005051;28;20049;-86
2022/08/09 06:46:19;;;;;;;19.98;4.18;;;;;;;;;;5006053;28;20419;-87
2022/08/09 06:49:12;;;;;;;12.63;3.13;;;;;;;;;;5007803;28;20049;-86
2022/08/09 06:51:55;;;;;;;14.40;2.95;;;;;;;;;;5008285;28;20049;-86
2022/08/09 06:54:29;;;;;;;22.25;4.55;;;;;;;;;;5006480;28;20050;-86
2022/08/09 06:57:52;;;;;;;32.10;5.65;;;;;;;;;;5004360;28;20092;-86
2022/08/09 07:00:31;;;;;;;14.52;4.40;;;;;;;;;;4993253;28;20081;-88
2022/08/09 07:03:19;;;;;;;9.73;3.40;;;;;;;;;;4991439;28;20050;-88
2022/08/09 07:06:01;;;;;;;23.13;3.35;;;;;;;;;;5008424;28;20069;-86
2022/08/09 07:08:32;;;;;;;13.60;3.47;;;;;;;;;;5011837;28;20046;-86
2022/08/09 07:11:01;;;;;;;17.63;3.58;;;;;;;;;;5010812;28;20058;-84
2022/08/09 07:13:32;;;;;;;11.52;3.30;;;;;;;;;;5013213;28;20047;-85
2022/08/09 07:16:20;;;;;;;14.10;3.33;;;;;;;;;;5007950;28;20054;-85
2022/08/09 07:19:10;;;;;;;8.88;2.42;;;;;;;;;;4997274;28;20050;-85
2022/08/09 07:21:42;;;;;;;6.45;2.25;;;;;;;;;;5001483;28;20142;-83
2022/08/09 07:24:25;;;;;;;2.45;1.60;;;;;;;;;;4994229;28;20135;-85
2022/08/09 07:27:00;;;;;;;2.58;2.00;;;;;;;;;;4993472;28;20042;-85
2022/08/09 07:29:28;;;;;;;5.30;1.60;;;;;;;;;;4995365;28;20050;-83
2022/08/09 07:32:04;;;;;;;4.70;1.75;;;;;;;;;;4995381;28;20046;-85
2022/08/09 07:34:31;;;;;;;4.07;1.52;;;;;;;;;;4997193;28;20097;-84
2022/08/09 07:37:00;;;;;;;3.08;1.70;;;;;;;;;;4998907;28;20074;-85
2022/08/09 07:39:29;;;;;;;3.55;1.70;;;;;;;;;;5000417;28;20042;-84
2022/08/09 07:42:08;;;;;;;5.82;1.70;;;;;;;;;;4997679;28;20046;-83
2022/08/09 07:44:42;;;;;;;2.92;1.80;;;;;;;;;;5003913;28;20058;-83
2022/08/09 07:47:19;;;;;;;12.57;2.17;;;;;;;;;;5002365;28;20062;-84
2022/08/09 07:49:49;;;;;;;5.22;1.27;;;;;;;;;;5002747;28;20136;-85
2022/08/09 07:52:40;;;;;;;1.50;1.10;;;;;;;;;;5004887;28;20061;-84
2022/08/09 07:55:09;;;;;;;1.65;1.50;;;;;;;;;;4998318;28;20070;-84
2022/08/09 07:57:37;;;;;;;3.78;1.40;;;;;;;;;;4999872;28;20074;-85
2022/08/09 08:00:14;;;;;;;4.97;1.52;;;;;;;;;;5007874;28;20473;-87
2022/08/09 08:03:02;;;;;;;3.80;1.33;;;;;;;;;;5000272;28;20053;-86
2022/08/09 08:05:40;;;;;;;3.50;1.27;;;;;;;;;;5006200;28;20122;-84
2022/08/09 08:08:20;;;;;;;4.63;1.20;;;;;;;;;;5007855;28;20046;-84
2022/08/09 08:11:08;;;;;;;3.30;1.15;;;;;;;;;;5004313;28;20050;-88
2022/08/09 08:13:55;;;;;;;3.97;1.30;;;;;;;;;;5004059;28;20084;-86
2022/08/09 08:16:23;;;;;;;2.70;1.40;;;;;;;;;;5004712;28;20046;-87
2022/08/09 08:18:58;;;;;;;1.58;1.20;;;;;;;;;;5002142;28;20042;-88
2022/08/09 08:21:29;;;;;;;2.30;1.30;;;;;;;;;;5000055;28;20110;-87
2022/08/09 08:23:57;;;;;;;2.05;1.30;;;;;;;;;;5005105;28;20054;-87
2022/08/09 08:26:27;;;;;;;2.60;1.20;;;;;;;;;;5004170;28;20058;-87
2022/08/09 08:29:18;;;;;;;1.27;0.98;;;;;;;;;;4997765;28;20476;-88
2022/08/09 08:31:53;;;;;;;1.45;1.10;;;;;;;;;;4998128;28;20130;-89
2022/08/09 08:34:32;;;;;;;1.00;0.90;;;;;;;;;;4999791;28;20057;-88
2022/08/09 08:37:02;;;;;;;2.33;1.25;;;;;;;;;;4999155;28;20070;-88
2022/08/09 08:39:30;;;;;;;2.35;1.20;;;;;;;;;;4997769;28;20055;-88
2022/08/09 08:42:10;;;;;;;4.35;1.50;;;;;;;;;;4997414;28;20074;-87
2022/08/09 08:44:39;;;;;;;4.00;1.10;;;;;;;;;;4998362;28;20089;-87
2022/08/09 08:47:08;;;;;;;3.20;1.40;;;;;;;;;;4998861;28;20470;-89
2022/08/09 08:49:39;;;;;;;2.38;1.27;;;;;;;;;;4996542;28;20483;-87
2022/08/09 08:52:18;;;;;;;2.17;1.25;;;;;;;;;;4998767;28;20054;-88
2022/08/09 08:55:07;;;;;;;1.15;1.00;;;;;;;;;;4996596;28;20110;-86
2022/08/09 08:57:34;;;;;;;2.45;1.20;;;;;;;;;;4998472;28;20054;-86
2022/08/09 09:00:05;;;;;;;12.98;1.88;;;;;;;;;;4999398;28;20101;-87
2022/08/09 09:02:46;;;;;;;3.97;1.43;;;;;;;;;;5000846;28;20582;-88
2022/08/09 09:05:21;;;;;;;2.07;1.20;;;;;;;;;;4998226;28;20510;-88
2022/08/09 09:08:10;;;;;;;5.07;1.60;;;;;;;;;;4998078;28;20362;-89
2022/08/09 09:11:00;;;;;;;5.03;1.35;;;;;;;;;;4995156;28;20065;-86
2022/08/09 09:13:39;;;;;;;3.63;1.50;;;;;;;;;;4995759;28;20495;-87
2022/08/09 09:16:23;;;;;;;4.80;1.40;;;;;;;;;;4995802;28;20853;-88
2022/08/09 09:18:59;;;;;;;2.78;1.33;;;;;;;;;;4995824;28;20105;-89
2022/08/09 09:21:56;;;;;;;3.25;1.05;;;;;;;;;;4995180;28;20132;-87
2022/08/09 09:24:27;;;;;;;3.58;1.40;;;;;;;;;;4995097;28;20070;-88
2022/08/09 09:27:24;;;;;;;4.68;1.30;;;;;;;;;;4991729;28;20104;-87
2022/08/09 09:30:12;;;;;;;6.32;1.70;;;;;;;;;;4998079;28;20050;-86
2022/08/09 09:33:02;;;;;;;3.90;1.02;;;;;;;;;;4996399;28;20084;-84
2022/08/09 09:35:54;;;;;;;4.88;1.40;;;;;;;;;;4995333;28;20051;-87
2022/08/09 09:38:39;;;;;;;3.65;1.63;;;;;;;;;;4995563;28;20060;-85
2022/08/09 09:41:07;;;;;;;3.97;1.30;;;;;;;;;;4995662;28;20047;-87
2022/08/09 09:43:36;;;;;;;1.30;1.20;;;;;;;;;;4995437;28;20056;-85
2022/08/09 09:46:27;;;;;;;3.40;1.20;;;;;;;;;;4995508;28;20042;-85
2022/08/09 09:49:18;;;;;;;2.03;1.13;;;;;;;;;;4996298;28;20052;-86
2022/08/09 09:52:10;;;;;;;6.63;1.10;;;;;;;;;;4996034;28;20064;-85
2022/08/09 09:55:01;;;;;;;3.05;1.02;;;;;;;;;;4996466;28;20066;-85
2022/08/09 09:57:56;;;;;;;5.43;1.80;;;;;;;;;;4995972;28;20054;-84
2022/08/09 10:00:30;;;;;;;2.28;1.23;;;;;;;;;;4995738;28;20181;-86
2022/08/09 10:02:59;;;;;;;4.18;1.38;;;;;;;;;;4995063;28;20077;-86
2022/08/09 10:05:59;;;;;;;2.47;1.20;;;;;;;;;;4996139;28;20050;-86
2022/08/09 10:08:30;;;;;;;2.78;1.30;;;;;;;;;;4994359;28;20136;-86
2022/08/09 10:11:25;;;;;;;5.55;0.95;;;;;;;;;;4996747;28;20047;-84
2022/08/09 10:14:22;;;;;;;2.63;1.20;;;;;;;;;;4995784;28;20053;-84
2022/08/09 10:16:57;;;;;;;4.68;1.30;;;;;;;;;;4996297;28;20496;-86
2022/08/09 10:19:45;;;;;;;3.47;1.23;;;;;;;;;;5000552;28;20109;-84
2022/08/09 10:22:28;;;;;;;5.80;1.20;;;;;;;;;;4995290;28;20054;-84
2022/08/09 10:25:06;;;;;;;1.33;1.25;;;;;;;;;;4994682;28;20081;-86
2022/08/09 10:27:41;;;;;;;1.52;1.20;;;;;;;;;;4994422;28;20089;-83
2022/08/09 10:30:23;;;;;;;3.83;1.48;;;;;;;;;;4994555;28;20057;-85
2022/08/09 10:33:11;;;;;;;2.92;1.17;;;;;;;;;;4994070;28;20049;-85
2022/08/09 10:35:59;;;;;;;1.30;1.20;;;;;;;;;;4993754;28;20076;-84
2022/08/09 10:38:30;;;;;;;7.68;1.30;;;;;;;;;;4995300;28;20529;-86
2022/08/09 10:41:17;;;;;;;2.72;1.42;;;;;;;;;;4994280;28;20058;-86
2022/08/09 10:43:48;;;;;;;1.95;1.25;;;;;;;;;;4994624;28;20061;-85
2022/08/09 10:46:38;;;;;;;4.18;1.35;;;;;;;;;;4993636;28;20134;-84
2022/08/09 10:49:31;;;;;;;3.53;1.50;;;;;;;;;;4994303;28;20415;-82
2022/08/09 10:52:22;;;;;;;4.22;1.33;;;;;;;;;;4994825;28;20051;-85
2022/08/09 10:54:52;;;;;;;3.92;1.80;;;;;;;;;;4994063;28;20100;-84
2022/08/09 10:57:22;;;;;;;4.63;1.52;;;;;;;;;;4993881;28;20050;-85
2022/08/09 10:59:49;;;;;;;5.05;1.40;;;;;;;;;;4994377;28;20121;-84
2022/08/09 11:02:37;;;;;;;4.03;1.35;;;;;;;;;;4994644;28;20137;-87
2022/08/09 11:05:28;;;;;;;3.15;1.00;;;;;;;;;;4994116;28;20138;-87
2022/08/09 11:08:18;;;;;;;3.65;1.50;;;;;;;;;;4994304;28;20066;-85
2022/08/09 11:10:59;;;;;;;3.33;1.50;;;;;;;;;;4993934;28;20046;-84
2022/08/09 11:13:35;;;;;;;2.83;1.45;;;;;;;;;;4993857;28;20092;-84
2022/08/09 11:16:37;;;;;;;2.28;1.25;;;;;;;;;;4993958;28;20053;-85
2022/08/09 11:19:16;;;;;;;6.67;1.33;;;;;;;;;;4993018;28;20492;-88
2022/08/09 11:21:53;;;;;;;2.55;1.10;;;;;;;;;;4994766;28;20475;-85
2022/08/09 11:25:06;;;;;;;1.73;1.55;;;;;;;;;;4994756;28;20424;-84
2022/08/09 11:27:37;;;;;;;2.38;0.95;;;;;;;;;;4991480;28;20523;-85
2022/08/09 11:30:25;;;;;;;1.17;1.10;;;;;;;;;;4995028;28;20047;-86
2022/08/09 11:33:15;;;;;;;2.38;1.27;;;;;;;;;;4993000;28;20558;-85
2022/08/09 11:35:46;;;;;;;2.70;1.15;;;;;;;;;;4994027;28;20046;-87
2022/08/09 11:38:21;;;;;;;1.05;1.05;;;;;;;;;;4994706;28;20431;-85
2022/08/09 11:41:15;;;;;;;1.30;1.20;;;;;;;;;;4992814;28;20137;-86
2022/08/09 11:43:47;;;;;;;1.60;1.33;;;;;;;;;;4992903;28;20050;-85
2022/08/09 11:46:15;;;;;;;2.42;1.20;;;;;;;;;;4992514;28;20054;-84
2022/08/09 11:48:53;;;;;;;3.22;1.30;;;;;;;;;;4992996;28;20190;-85
2022/08/09 11:51:22;;;;;;;1.20;0.98;;;;;;;;;;4993309;28;20058;-86
2022/08/09 11:54:14;;;;;;;3.90;1.30;;;;;;;;;;4992790;28;20200;-86
2022/08/09 11:57:18;;;;;;;2.58;0.80;;;;;;;;;;4992496;28;20054;-87
2022/08/09 12:00:09;;;;;;;4.13;1.52;;;;;;;;;;4993043;28;20053;-87
2022/08/09 12:02:43;;;;;;;2.67;1.08;;;;;;;;;;4992583;28;20400;-85
2022/08/09 12:05:20;;;;;;;1.38;1.05;;;;;;;;;;4992423;28;20046;-87
2022/08/09 12:07:49;;;;;;;4.50;1.25;;;;;;;;;;4992611;28;20054;-85
2022/08/09 12:10:22;;;;;;;4.80;1.10;;;;;;;;;;4992385;28;20081;-85
2022/08/09 12:13:06;;;;;;;2.88;1.42;;;;;;;;;;4991983;28;20050;-87
2022/08/09 12:16:02;;;;;;;1.15;1.05;;;;;;;;;;4992870;28;20397;-87
2022/08/09 12:18:30;;;;;;;3.00;1.05;;;;;;;;;;4992610;28;20101;-86
2022/08/09 12:21:00;;;;;;;1.83;1.30;;;;;;;;;;4992987;28;20443;-86
2022/08/09 12:23:29;;;;;;;4.38;1.30;;;;;;;;;;4992291;28;20516;-88
2022/08/09 12:26:17;;;;;;;5.03;1.25;;;;;;;;;;4992464;28;20047;-86
2022/08/09 12:28:54;;;;;;;2.13;1.15;;;;;;;;;;4992180;28;20050;-87
2022/08/09 12:31:41;;;;;;;6.25;1.30;;;;;;;;;;4994811;28;20050;-86
2022/08/09 12:34:38;;;;;;;2.92;1.50;;;;;;;;;;4996455;28;20129;-87
2022/08/09 12:37:06;;;;;;;2.45;1.52;;;;;;;;;;4995642;28;20054;-85
2022/08/09 12:40:04;;;;;;;2.80;1.08;;;;;;;;;;4995970;28;20296;-87
2022/08/09 12:42:32;;;;;;;2.95;1.38;;;;;;;;;;4996046;28;20058;-85
2022/08/09 12:45:00;;;;;;;1.73;1.30;;;;;;;;;;4997423;28;20050;-86
2022/08/09 12:47:28;;;;;;;2.60;1.60;;;;;;;;;;4996049;28;20050;-86
2022/08/09 12:50:18;;;;;;;1.70;1.20;;;;;;;;;;4996445;28;20110;-85
2022/08/09 12:52:51;;;;;;;3.13;1.27;;;;;;;;;;4996824;28;20110;-86
2022/08/09 12:55:39;;;;;;;3.28;1.58;;;;;;;;;;4997813;28;20054;-86
2022/08/09 12:58:26;;;;;;;2.38;1.65;;;;;;;;;;4995562;28;20137;-85
2022/08/09 13:00:55;;;;;;;6.07;1.30;;;;;;;;;;4995653;28;20069;-85
2022/08/09 13:03:31;;;;;;;4.72;1.27;;;;;;;;;;4995763;28;20065;-85
2022/08/09 13:06:32;;;;;;;3.75;1.10;;;;;;;;;;4995974;28;20053;-85
2022/08/09 13:09:11;;;;;;;3.92;1.02;;;;;;;;;;4995986;28;20057;-86
2022/08/09 13:11:43;;;;;;;4.63;1.38;;;;;;;;;;4995617;28;20058;-86
2022/08/09 13:14:12;;;;;;;5.75;1.25;;;;;;;;;;4996489;28;20444;-87
2022/08/09 13:17:01;;;;;;;4.50;1.40;;;;;;;;;;4995597;28;20125;-85
2022/08/09 13:19:36;;;;;;;2.25;1.10;;;;;;;;;;4995555;28;20054;-84
2022/08/09 13:22:24;;;;;;;4.63;1.08;;;;;;;;;;4995927;28;20050;-81
2022/08/09 13:25:05;;;;;;;4.68;1.20;;;;;;;;;;5003775;23;20145;-88
2022/08/09 13:27:38;;;;;;;5.15;1.48;;;;;;;;;;4995630;28;20054;-88
2022/08/09 13:30:23;;;;;;;5.03;1.30;;;;;;;;;;4996545;28;20050;-88
2022/08/09 13:33:33;;;;;;;2.78;1.20;;;;;;;;;;4997119;28;20062;-87
2022/08/09 13:36:20;;;;;;;3.10;1.25;;;;;;;;;;4996315;28;20557;-88
2022/08/09 13:39:05;;;;;;;2.67;1.52;;;;;;;;;;4996958;28;20060;-85
2022/08/09 13:41:53;;;;;;;4.57;1.40;;;;;;;;;;4996358;28;20066;-88
2022/08/09 13:44:31;;;;;;;1.58;1.40;;;;;;;;;;4996085;28;20049;-88
2022/08/09 13:47:04;;;;;;;2.30;1.30;;;;;;;;;;4994544;28;20495;-86
2022/08/09 13:49:51;;;;;;;3.13;1.58;;;;;;;;;;4996359;28;20480;-89
2022/08/09 13:52:30;;;;;;;3.20;1.33;;;;;;;;;;4995621;28;20046;-88
2022/08/09 13:55:03;;;;;;;1.73;1.20;;;;;;;;;;4996579;28;20069;-87
2022/08/09 13:57:34;;;;;;;2.95;1.23;;;;;;;;;;4997642;28;20060;-88
2022/08/09 14:00:11;;;;;;;4.70;1.83;;;;;;;;;;4996041;28;20397;-87
2022/08/09 14:02:40;;;;;;;3.33;1.40;;;;;;;;;;4995093;28;20050;-90
2022/08/09 14:05:28;;;;;;;3.53;1.30;;;;;;;;;;4994923;28;20050;-90
2022/08/09 14:08:15;;;;;;;1.20;1.20;;;;;;;;;;4994846;28;20054;-86
2022/08/09 14:10:43;;;;;;;6.88;1.60;;;;;;;;;;4995335;28;20136;-87
2022/08/09 14:13:19;;;;;;;3.13;1.40;;;;;;;;;;4994525;28;20070;-90
2022/08/09 14:16:07;;;;;;;4.90;1.38;;;;;;;;;;4994367;28;20132;-85
2022/08/09 14:18:38;;;;;;;5.68;1.25;;;;;;;;;;4996477;28;20054;-87
2022/08/09 14:21:18;;;;;;;5.43;1.35;;;;;;;;;;4995739;28;20077;-90
2022/08/09 14:23:47;;;;;;;1.80;1.40;;;;;;;;;;4994116;28;20066;-87
2022/08/09 14:26:26;;;;;;;3.00;1.17;;;;;;;;;;4994166;28;20051;-85
2022/08/09 14:28:59;;;;;;;4.90;1.60;;;;;;;;;;4995708;28;20054;-88
2022/08/09 14:31:27;;;;;;;6.32;1.13;;;;;;;;;;4994651;28;20042;-86
2022/08/09 14:34:14;;;;;;;6.28;1.15;;;;;;;;;;4994799;28;20054;-90
2022/08/09 14:36:43;;;;;;;2.35;1.33;;;;;;;;;;4994065;28;20109;-89
2022/08/09 14:39:14;;;;;;;2.05;1.35;;;;;;;;;;4994374;28;20065;-90
2022/08/09 14:41:43;;;;;;;1.35;1.17;;;;;;;;;;4994020;28;20050;-89
2022/08/09 14:44:11;;;;;;;2.30;1.20;;;;;;;;;;4994850;28;20073;-88
2022/08/09 14:46:40;;;;;;;1.35;1.25;;;;;;;;;;4994052;28;20094;-88
2022/08/09 14:49:27;;;;;;;7.10;1.50;;;;;;;;;;4994539;28;20137;-88
2022/08/09 14:52:05;;;;;;;1.48;1.38;;;;;;;;;;4993925;28;20050;-86
2022/08/09 14:54:33;;;;;;;5.32;1.20;;;;;;;;;;4993638;28;20090;-90
2022/08/09 14:57:00;;;;;;;3.65;1.30;;;;;;;;;;4993297;28;20054;-90
2022/08/09 14:59:41;;;;;;;2.60;1.10;;;;;;;;;;4992397;28;20447;-86
2022/08/09 15:02:17;;;;;;;1.85;1.30;;;;;;;;;;4993766;28;20077;-87
2022/08/09 15:04:48;;;;;;;2.30;1.33;;;;;;;;;;4994198;28;20141;-85
2022/08/09 15:07:17;;;;;;;1.25;1.15;;;;;;;;;;4994888;28;20046;-89
2022/08/09 15:10:01;;;;;;;3.85;1.40;;;;;;;;;;4992460;28;20047;-88
2022/08/09 15:12:46;;;;;;;3.25;1.15;;;;;;;;;;4993919;28;20051;-89
2022/08/09 15:15:19;;;;;;;2.10;1.20;;;;;;;;;;4994361;28;20050;-90
2022/08/09 15:18:00;;;;;;;2.92;1.20;;;;;;;;;;4993779;28;20053;-87
2022/08/09 15:20:31;;;;;;;3.15;1.40;;;;;;;;;;4995285;28;20518;-88
2022/08/09 15:23:21;;;;;;;;;;;;;;;;;;4993697;28;20057;-88
2022/08/09 15:26:08;;;;;;;2.97;1.30;;;;;;;;;;4993235;28;20012;-85
2022/08/09 15:28:59;;;;;;;1.52;1.00;;;;;;;;;;4993786;28;20049;-89
2022/08/09 15:31:31;;;;;;;2.30;1.30;;;;;;;;;;4993311;28;20487;-84
2022/08/09 15:34:08;;;;;;;4.75;1.40;;;;;;;;;;4993427;28;20042;-88
2022/08/09 15:37:01;;;;;;;9.00;2.30;;;;;;;;;;4993641;28;20065;-84
2022/08/09 15:39:30;;;;;;;5.43;1.63;;;;;;;;;;4993223;28;20060;-88
2022/08/09 15:42:19;;;;;;;1.67;1.40;;;;;;;;;;4993245;28;20477;-87
2022/08/09 15:44:47;;;;;;;3.95;1.25;;;;;;;;;;4993510;28;20054;-90
2022/08/09 15:47:21;;;;;;;4.18;1.40;;;;;;;;;;4993096;28;20052;-89